Time;durP1;ratioP1;P1;durP2;ratioP2;P2;SDS_P1;SDS_P2;PMS_P1;PMS_P2;Temp;Humidity;BMP_temperature;BMP_pressure;BME280_temperature;BME280_humidity;BME280_pressure;Samples;Min_cycle;Max_cycle;Signal;HPM_P1;HPM_P2
2022/08/19 00:02:04;;;;;;;13.45;12.55;;;23.90;79.60;;;;;;5025755;28;20181;-83
2022/08/19 00:04:36;;;;;;;14.25;13.15;;;23.90;79.30;;;;;;5029078;28;20567;-83
2022/08/19 00:07:04;;;;;;;13.50;12.60;;;23.90;79.70;;;;;;5027265;28;20278;-83
2022/08/19 00:09:30;;;;;;;14.10;13.10;;;23.90;79.50;;;;;;5029730;28;20263;-84
2022/08/19 00:11:57;;;;;;;14.52;13.45;;;23.80;80.00;;;;;;5031241;28;20193;-83
2022/08/19 00:14:25;;;;;;;14.25;13.02;;;23.80;79.60;;;;;;5037666;28;20239;-83
2022/08/19 00:16:53;;;;;;;15.10;13.95;;;23.80;79.60;;;;;;5033152;28;20181;-84
2022/08/19 00:19:20;;;;;;;14.73;13.63;;;23.80;80.40;;;;;;5034159;28;20275;-83
2022/08/19 00:21:46;;;;;;;14.60;13.60;;;23.80;79.60;;;;;;5026575;28;20188;-82
2022/08/19 00:24:14;;;;;;;15.50;14.30;;;23.90;79.40;;;;;;5026495;28;20250;-82
2022/08/19 00:26:41;;;;;;;15.18;13.93;;;23.90;79.20;;;;;;5031305;28;20530;-82
2022/08/19 00:29:09;;;;;;;14.93;13.90;;;24.00;78.40;;;;;;5027913;28;20192;-82
2022/08/19 00:31:36;;;;;;;16.25;15.00;;;24.00;78.90;;;;;;5033106;28;20256;-83
2022/08/19 00:34:02;;;;;;;15.93;14.77;;;24.00;79.00;;;;;;5027323;28;20192;-83
2022/08/19 00:36:28;;;;;;;17.27;15.77;;;23.90;79.70;;;;;;5027329;28;20185;-82
2022/08/19 00:38:55;;;;;;;16.08;14.88;;;23.80;81.00;;;;;;5034811;28;20193;-82
2022/08/19 00:41:23;;;;;;;15.73;14.63;;;23.70;80.60;;;;;;5030563;28;20271;-83
2022/08/19 00:44:19;;;;;;;16.50;15.20;;;23.80;80.50;;;;;;5027206;28;20727;-82
2022/08/19 00:46:46;;;;;;;17.20;15.90;;;23.80;80.80;;;;;;5031071;28;20193;-83
2022/08/19 00:49:27;;;;;;;15.32;14.15;;;23.80;82.20;;;;;;5025824;28;20201;-83
2022/08/19 00:52:05;;;;;;;16.17;14.98;;;23.80;82.20;;;;;;5027149;28;20185;-82
2022/08/19 00:54:31;;;;;;;15.07;13.98;;;23.70;83.10;;;;;;5026080;28;20215;-82
2022/08/19 00:56:59;;;;;;;15.05;13.95;;;23.60;84.40;;;;;;5028227;28;20192;-82
2022/08/19 00:59:25;;;;;;;15.50;14.38;;;23.50;85.50;;;;;;5025316;28;20235;-82
2022/08/19 01:01:52;;;;;;;16.83;15.63;;;23.40;86.40;;;;;;5029845;28;20200;-83
2022/08/19 01:04:17;;;;;;;15.48;14.38;;;23.30;87.30;;;;;;5030019;28;20290;-83
2022/08/19 01:06:43;;;;;;;15.18;14.07;;;23.30;86.90;;;;;;5030732;28;20181;-82
2022/08/19 01:09:09;;;;;;;17.20;15.82;;;23.30;86.50;;;;;;5027738;28;20215;-82
2022/08/19 01:11:39;;;;;;;18.42;16.92;;;23.20;88.20;;;;;;5022525;28;20685;-82
2022/08/19 01:14:05;;;;;;;17.48;16.23;;;23.10;88.30;;;;;;5033466;28;20193;-83
2022/08/19 01:16:33;;;;;;;17.98;16.67;;;23.30;87.70;;;;;;5028745;28;20177;-82
2022/08/19 01:18:58;;;;;;;19.45;17.73;;;23.30;88.60;;;;;;5027551;28;20182;-83
2022/08/19 01:21:34;;;;;;;18.77;17.38;;;23.30;89.40;;;;;;5030843;28;20177;-83
2022/08/19 01:24:00;;;;;;;18.55;17.15;;;23.40;88.60;;;;;;5030625;28;20220;-83
2022/08/19 01:26:26;;;;;;;20.52;18.90;;;23.40;88.80;;;;;;5025068;28;20678;-83
2022/08/19 01:28:54;;;;;;;20.67;19.05;;;23.30;90.20;;;;;;5025226;28;20213;-83
2022/08/19 01:31:24;;;;;;;19.13;17.73;;;23.30;90.90;;;;;;5027253;28;20193;-83
2022/08/19 01:33:51;;;;;;;20.85;19.13;;;23.20;90.70;;;;;;5028326;28;20181;-83
2022/08/19 01:36:34;;;;;;;21.38;19.70;;;23.10;91.60;;;;;;5026821;28;20722;-83
2022/08/19 01:39:02;;;;;;;21.60;19.80;;;23.10;91.60;;;;;;5024550;28;20193;-84
2022/08/19 01:41:28;;;;;;;23.00;20.95;;;23.10;92.60;;;;;;5024919;28;20189;-83
2022/08/19 01:43:55;;;;;;;21.98;20.27;;;23.00;93.00;;;;;;5030701;28;20303;-83
2022/08/19 01:46:21;;;;;;;21.98;20.20;;;22.90;93.80;;;;;;5025212;28;20251;-84
2022/08/19 01:48:48;;;;;;;22.42;20.52;;;22.80;93.30;;;;;;5025682;28;20180;-84
2022/08/19 01:51:14;;;;;;;21.40;19.55;;;22.80;94.10;;;;;;5025580;28;20279;-83
2022/08/19 01:53:40;;;;;;;22.60;20.75;;;22.90;93.90;;;;;;5026415;28;20200;-83
2022/08/19 01:56:06;;;;;;;22.75;21.00;;;22.90;93.80;;;;;;5022785;28;20185;-83
2022/08/19 01:58:38;;;;;;;21.88;20.08;;;23.00;93.80;;;;;;5030464;28;20598;-82
2022/08/19 02:01:04;;;;;;;21.10;19.42;;;23.00;93.50;;;;;;5025132;28;20217;-83
2022/08/19 02:03:30;;;;;;;19.83;18.33;;;23.10;92.80;;;;;;5025302;28;20205;-82
2022/08/19 02:06:02;;;;;;;20.60;19.10;;;23.10;92.20;;;;;;5027913;28;20246;-83
2022/08/19 02:08:28;;;;;;;20.35;18.73;;;23.10;92.00;;;;;;5040971;28;20436;-83
2022/08/19 02:10:54;;;;;;;19.92;18.42;;;23.20;91.70;;;;;;5023923;28;20205;-83
2022/08/19 02:13:20;;;;;;;22.20;20.40;;;23.20;91.60;;;;;;5027555;28;20181;-84
2022/08/19 02:15:45;;;;;;;21.25;19.65;;;23.20;91.80;;;;;;5027896;28;20260;-82
2022/08/19 02:18:11;;;;;;;20.95;19.25;;;23.10;92.10;;;;;;5022963;28;20212;-83
2022/08/19 02:20:38;;;;;;;20.33;18.73;;;23.20;91.30;;;;;;5026019;28;20258;-83
2022/08/19 02:23:05;;;;;;;20.92;19.33;;;23.20;91.00;;;;;;5025212;28;20177;-83
2022/08/19 02:25:31;;;;;;;22.02;20.23;;;23.20;91.40;;;;;;5021010;28;20224;-83
2022/08/19 02:27:57;;;;;;;20.70;19.00;;;23.10;92.20;;;;;;5025841;28;20181;-83
2022/08/19 02:30:24;;;;;;;21.52;19.80;;;23.10;91.60;;;;;;5028425;28;20209;-84
2022/08/19 02:32:50;;;;;;;22.98;21.27;;;23.10;92.30;;;;;;5025183;28;20185;-83
2022/08/19 02:35:17;;;;;;;21.38;19.63;;;23.10;92.30;;;;;;5027101;28;20300;-83
2022/08/19 02:40:29;;;;;;;20.95;19.33;;;23.10;92.40;;;;;;5023318;28;20243;-83
2022/08/19 02:42:55;;;;;;;21.38;19.88;;;23.10;92.10;;;;;;5025792;28;20692;-83
2022/08/19 02:45:21;;;;;;;23.00;21.20;;;23.10;91.90;;;;;;5032191;28;20216;-82
2022/08/19 02:47:47;;;;;;;21.70;20.00;;;23.10;92.00;;;;;;5030926;28;20177;-83
2022/08/19 02:50:13;;;;;;;21.40;19.70;;;23.10;92.30;;;;;;5027349;28;20228;-85
2022/08/19 02:52:39;;;;;;;20.08;18.48;;;23.10;92.00;;;;;;5023025;28;20264;-83
2022/08/19 02:55:05;;;;;;;21.02;19.42;;;23.20;91.40;;;;;;5025154;28;20272;-83
2022/08/19 02:57:31;;;;;;;22.20;20.40;;;23.10;91.40;;;;;;5025600;28;20249;-83
2022/08/19 02:59:58;;;;;;;20.80;19.15;;;23.10;91.40;;;;;;5025848;28;20245;-84
2022/08/19 03:02:24;;;;;;;21.58;19.88;;;23.20;91.00;;;;;;5028760;28;20711;-83
2022/08/19 03:04:50;;;;;;;23.58;21.58;;;23.20;90.70;;;;;;5022827;28;20212;-84
2022/08/19 03:07:18;;;;;;;24.95;23.00;;;23.20;90.40;;;;;;5021946;28;20173;-83
2022/08/19 03:09:44;;;;;;;25.33;23.27;;;23.10;92.40;;;;;;5022320;28;20645;-83
2022/08/19 03:12:10;;;;;;;26.13;24.13;;;23.00;93.60;;;;;;5025571;28;20181;-83
2022/08/19 03:14:36;;;;;;;26.52;24.48;;;22.70;95.10;;;;;;5023691;28;20192;-83
2022/08/19 03:17:04;;;;;;;26.00;23.77;;;22.60;96.30;;;;;;5024258;28;20230;-82
2022/08/19 03:19:31;;;;;;;25.25;23.25;;;22.50;96.90;;;;;;5026764;28;20540;-83
2022/08/19 03:21:58;;;;;;;27.52;25.33;;;22.50;97.20;;;;;;5024611;28;20651;-83
2022/08/19 03:24:24;;;;;;;27.20;25.08;;;22.30;98.60;;;;;;5028140;28;20579;-84
2022/08/19 03:26:57;;;;;;;28.25;25.92;;;22.10;99.70;;;;;;5026636;28;20211;-84
2022/08/19 03:29:23;;;;;;;26.80;24.58;;;22.00;99.90;;;;;;5024800;28;20278;-83
2022/08/19 03:31:51;;;;;;;27.08;24.98;;;22.00;99.80;;;;;;5025215;28;20194;-83
2022/08/19 03:34:21;;;;;;;26.60;24.40;;;22.00;99.90;;;;;;5022934;28;20185;-83
2022/08/19 03:36:47;;;;;;;24.85;22.83;;;22.10;99.60;;;;;;5024556;28;20292;-84
2022/08/19 03:39:14;;;;;;;28.15;26.00;;;22.20;98.50;;;;;;5024989;28;20211;-83
2022/08/19 03:41:42;;;;;;;26.15;24.15;;;22.30;98.60;;;;;;5025889;28;20252;-82
2022/08/19 03:44:08;;;;;;;25.63;23.60;;;22.40;97.60;;;;;;5019949;28;20204;-83
2022/08/19 03:46:36;;;;;;;26.77;24.58;;;22.40;97.90;;;;;;5023888;28;20200;-83
2022/08/19 03:49:07;;;;;;;24.23;22.23;;;22.50;97.40;;;;;;5021938;28;20276;-82
2022/08/19 03:51:37;;;;;;;24.92;22.92;;;22.50;96.70;;;;;;5027418;28;20435;-84
2022/08/19 03:54:08;;;;;;;26.70;24.27;;;22.60;96.40;;;;;;5030950;28;20272;-83
2022/08/19 03:56:37;;;;;;;23.35;21.52;;;22.70;96.50;;;;;;5024102;28;20189;-83
2022/08/19 03:59:05;;;;;;;26.10;24.00;;;22.70;95.70;;;;;;5030370;28;20240;-83
2022/08/19 04:01:31;;;;;;;24.90;22.55;;;22.80;95.80;;;;;;5028563;28;20193;-83
2022/08/19 04:03:58;;;;;;;26.02;23.73;;;22.70;95.50;;;;;;5028521;28;20212;-83
2022/08/19 04:06:28;;;;;;;24.83;22.85;;;22.70;96.00;;;;;;5024620;28;20679;-83
2022/08/19 04:08:55;;;;;;;23.45;21.55;;;22.70;95.50;;;;;;5027576;28;20599;-83
2022/08/19 04:11:23;;;;;;;25.67;23.70;;;22.70;95.50;;;;;;5026281;28;20213;-83
2022/08/19 04:13:50;;;;;;;24.67;22.90;;;22.80;95.30;;;;;;5029176;28;20192;-83
2022/08/19 04:16:20;;;;;;;26.33;23.92;;;22.70;95.50;;;;;;5024852;28;20173;-82
2022/08/19 04:18:47;;;;;;;27.65;25.45;;;22.60;96.20;;;;;;5026255;28;20243;-83
2022/08/19 04:21:22;;;;;;;26.92;24.83;;;22.50;96.50;;;;;;5024224;28;20284;-83
2022/08/19 04:23:49;;;;;;;27.88;25.58;;;22.40;96.70;;;;;;5024391;28;20223;-84
2022/08/19 04:26:21;;;;;;;26.90;24.73;;;22.50;96.60;;;;;;5020599;28;20200;-85
2022/08/19 04:28:47;;;;;;;26.98;24.77;;;22.40;96.80;;;;;;5026187;28;20188;-84
2022/08/19 04:31:19;;;;;;;26.08;23.88;;;22.40;96.50;;;;;;5025762;28;20228;-84
2022/08/19 04:33:45;;;;;;;24.23;22.13;;;22.50;96.40;;;;;;5030870;28;20279;-84
2022/08/19 04:36:22;;;;;;;26.10;24.02;;;22.50;96.10;;;;;;5036568;28;20284;-83
2022/08/19 04:38:49;;;;;;;27.08;24.90;;;22.60;95.90;;;;;;5031541;28;20184;-85
2022/08/19 04:44:02;;;;;;;24.42;22.52;;;22.60;95.50;;;;;;5019520;28;20220;-83
2022/08/19 04:46:30;;;;;;;24.60;22.42;;;22.60;94.50;;;;;;5019796;28;20609;-85
2022/08/19 04:48:56;;;;;;;24.58;22.67;;;22.70;94.70;;;;;;5025490;28;20192;-84
2022/08/19 04:51:23;;;;;;;27.75;25.55;;;22.70;94.20;;;;;;5025433;28;20194;-83
2022/08/19 04:53:49;;;;;;;24.63;22.70;;;22.80;94.00;;;;;;5031790;28;20323;-84
2022/08/19 04:56:17;;;;;;;23.50;21.60;;;22.80;93.60;;;;;;5029962;28;20272;-84
2022/08/19 04:58:44;;;;;;;27.27;25.10;;;22.80;93.80;;;;;;5027234;28;20767;-84
2022/08/19 05:01:18;;;;;;;27.25;24.85;;;22.80;93.90;;;;;;5024196;28;20259;-84
2022/08/19 05:03:43;;;;;;;25.60;23.48;;;22.70;94.90;;;;;;5028166;28;20228;-84
2022/08/19 05:06:13;;;;;;;27.23;25.05;;;22.50;94.70;;;;;;5029990;28;20216;-84
2022/08/19 05:08:43;;;;;;;25.05;23.02;;;22.50;95.50;;;;;;5024951;28;20202;-84
2022/08/19 05:11:15;;;;;;;24.25;22.08;;;22.60;94.40;;;;;;5026646;28;20335;-83
2022/08/19 05:13:42;;;;;;;24.75;22.70;;;22.80;93.50;;;;;;5027189;28;20408;-83
2022/08/19 05:16:09;;;;;;;27.92;25.65;;;22.80;93.20;;;;;;5026255;28;20197;-83
2022/08/19 05:24:08;;;;;;;26.02;23.92;;;22.90;93.10;;;;;;5029474;28;20222;-84
2022/08/19 05:26:39;;;;;;;26.38;24.13;;;22.90;93.10;;;;;;5023693;28;20201;-83
2022/08/19 05:29:07;;;;;;;25.23;23.20;;;22.90;92.50;;;;;;5029223;28;20707;-84
2022/08/19 05:31:32;;;;;;;27.52;25.23;;;22.70;93.20;;;;;;5026337;28;20300;-84
2022/08/19 05:33:58;;;;;;;26.92;24.30;;;22.60;93.40;;;;;;5027689;28;20217;-83
2022/08/19 05:36:26;;;;;;;27.77;25.52;;;22.50;93.10;;;;;;5026361;28;20204;-83
2022/08/19 05:38:52;;;;;;;25.55;23.45;;;22.50;93.30;;;;;;5031403;28;20188;-83
2022/08/19 05:41:19;;;;;;;26.30;23.83;;;22.60;93.00;;;;;;5024585;28;20196;-83
2022/08/19 05:43:45;;;;;;;27.50;25.10;;;22.40;93.90;;;;;;5023190;28;20588;-84
2022/08/19 05:46:19;;;;;;;26.88;24.58;;;22.40;93.00;;;;;;5026830;28;20197;-84
2022/08/19 05:48:46;;;;;;;27.13;24.75;;;22.50;92.70;;;;;;5026023;28;20186;-83
2022/08/19 05:51:12;;;;;;;26.77;24.48;;;22.50;93.00;;;;;;5027239;28;20302;-84
2022/08/19 05:53:38;;;;;;;25.30;23.20;;;22.30;93.30;;;;;;5026689;28;20191;-84
2022/08/19 05:56:09;;;;;;;24.58;22.67;;;22.20;94.20;;;;;;5027683;28;20192;-84
2022/08/19 05:58:36;;;;;;;26.20;23.88;;;22.30;93.20;;;;;;5022253;28;20197;-84
2022/08/19 06:01:05;;;;;;;25.38;23.10;;;22.30;93.50;;;;;;5025954;28;20228;-84
2022/08/19 06:03:35;;;;;;;24.73;22.73;;;22.40;92.70;;;;;;5026409;28;20666;-83
2022/08/19 06:06:02;;;;;;;26.85;24.65;;;22.40;91.70;;;;;;5022298;28;20279;-83
2022/08/19 06:08:28;;;;;;;24.98;22.98;;;22.40;91.90;;;;;;5024474;28;20187;-83
2022/08/19 06:10:54;;;;;;;24.27;22.35;;;22.50;91.30;;;;;;5026987;28;20501;-84
2022/08/19 06:13:20;;;;;;;23.90;22.00;;;22.60;91.00;;;;;;5023483;28;20254;-84
2022/08/19 06:15:46;;;;;;;22.08;20.30;;;22.60;90.20;;;;;;5024356;28;20660;-84
2022/08/19 06:18:13;;;;;;;26.15;23.95;;;22.60;90.90;;;;;;5026223;28;20190;-84
2022/08/19 06:20:39;;;;;;;25.50;23.38;;;22.70;90.20;;;;;;5025959;28;20301;-83
2022/08/19 06:23:05;;;;;;;24.92;22.92;;;22.70;89.60;;;;;;5029898;28;20655;-83
2022/08/19 06:25:30;;;;;;;25.27;22.98;;;22.70;89.20;;;;;;5028636;28;20300;-83
2022/08/19 06:27:56;;;;;;;25.50;23.38;;;22.80;88.70;;;;;;5024532;28;20270;-83
2022/08/19 06:30:22;;;;;;;24.85;22.67;;;22.80;88.90;;;;;;5025018;28;20673;-83
2022/08/19 06:32:47;;;;;;;25.92;23.98;;;22.90;88.80;;;;;;5025119;28;20310;-84
2022/08/19 06:35:14;;;;;;;24.40;22.40;;;22.80;89.00;;;;;;5025440;28;20194;-83
2022/08/19 06:37:40;;;;;;;26.67;24.50;;;22.80;88.90;;;;;;5024099;28;20193;-84
2022/08/19 06:40:08;;;;;;;25.70;23.38;;;22.70;90.50;;;;;;5023056;28;20241;-84
2022/08/19 06:42:34;;;;;;;24.98;22.88;;;22.60;90.90;;;;;;5026672;28;20188;-84
2022/08/19 06:45:03;;;;;;;22.67;20.88;;;22.50;91.60;;;;;;5023386;28;20239;-84
2022/08/19 06:47:30;;;;;;;25.95;23.63;;;22.60;90.80;;;;;;5023662;28;20242;-84
2022/08/19 06:50:01;;;;;;;25.17;23.08;;;22.70;88.70;;;;;;5020259;28;20720;-84
2022/08/19 06:52:27;;;;;;;24.83;22.77;;;22.70;88.40;;;;;;5024245;28;20680;-84
2022/08/19 06:54:55;;;;;;;23.52;21.73;;;22.80;87.80;;;;;;5024314;28;20201;-84
2022/08/19 06:57:21;;;;;;;24.42;22.45;;;22.80;86.70;;;;;;5021869;28;20186;-84
2022/08/19 06:59:47;;;;;;;24.73;22.73;;;22.70;86.20;;;;;;5023645;28;20224;-84
2022/08/19 07:02:13;;;;;;;24.70;22.63;;;22.60;86.00;;;;;;5028026;28;20200;-84
2022/08/19 07:04:38;;;;;;;25.05;22.67;;;22.80;85.40;;;;;;5021070;28;20240;-84
2022/08/19 07:07:09;;;;;;;25.30;23.20;;;22.90;83.30;;;;;;5024395;28;20193;-84
2022/08/19 07:09:38;;;;;;;24.67;22.67;;;22.90;83.90;;;;;;5022227;28;20221;-83
2022/08/19 07:12:06;;;;;;;24.20;22.05;;;22.90;83.10;;;;;;5027453;28;20189;-84
2022/08/19 07:14:36;;;;;;;25.10;22.70;;;22.90;83.00;;;;;;5023865;28;20267;-84
2022/08/19 07:17:04;;;;;;;23.70;21.70;;;23.00;81.90;;;;;;5030027;28;20251;-83
2022/08/19 07:19:31;;;;;;;23.50;21.40;;;23.10;81.90;;;;;;5030715;28;20208;-84
2022/08/19 07:21:59;;;;;;;23.77;21.85;;;23.20;79.10;;;;;;5031230;28;20201;-83
2022/08/19 07:24:26;;;;;;;23.08;21.17;;;23.20;78.90;;;;;;5035814;28;20200;-83
2022/08/19 07:26:56;;;;;;;21.23;19.42;;;23.20;78.60;;;;;;5030949;28;20180;-83
2022/08/19 07:29:22;;;;;;;21.48;19.67;;;23.20;79.80;;;;;;5029203;28;20208;-84
2022/08/19 07:31:49;;;;;;;21.02;19.40;;;23.30;79.40;;;;;;5029851;28;20189;-84
2022/08/19 07:34:16;;;;;;;20.40;18.80;;;23.40;78.10;;;;;;5031756;28;20189;-84
2022/08/19 07:36:43;;;;;;;19.92;18.30;;;23.50;77.50;;;;;;5030131;28;20191;-86
2022/08/19 07:39:18;;;;;;;19.27;17.75;;;23.60;76.90;;;;;;5028534;28;20265;-83
2022/08/19 07:41:45;;;;;;;19.77;18.25;;;23.90;75.30;;;;;;5031252;28;20192;-84
2022/08/19 07:44:12;;;;;;;20.38;18.75;;;23.90;75.10;;;;;;5030509;28;20271;-84
2022/08/19 07:46:44;;;;;;;19.35;17.95;;;24.00;73.80;;;;;;5029750;28;20196;-84
2022/08/19 07:49:18;;;;;;;19.13;17.58;;;24.00;74.70;;;;;;5029564;28;20178;-85
2022/08/19 07:51:52;;;;;;;19.25;17.75;;;24.00;74.50;;;;;;5030585;28;20212;-84
2022/08/19 07:54:19;;;;;;;19.80;18.30;;;24.10;73.90;;;;;;5029713;28;20847;-84
2022/08/19 07:56:45;;;;;;;18.27;16.95;;;24.00;74.00;;;;;;5029447;28;20197;-84
2022/08/19 07:59:12;;;;;;;19.38;17.90;;;24.00;74.30;;;;;;5030163;28;20303;-84
2022/08/19 08:01:39;;;;;;;19.02;17.52;;;24.10;74.50;;;;;;5030612;28;20188;-84
2022/08/19 08:09:37;;;;;;;18.42;17.00;;;24.10;74.90;;;;;;5030123;28;20288;-84
2022/08/19 08:12:14;;;;;;;15.93;14.70;;;24.10;75.60;;;;;;5029983;28;20181;-84
2022/08/19 08:14:43;;;;;;;16.70;15.50;;;24.10;75.60;;;;;;5029631;28;20188;-83
2022/08/19 08:17:10;;;;;;;16.73;15.35;;;24.10;75.00;;;;;;5030517;28;20195;-84
2022/08/19 08:19:36;;;;;;;16.85;15.63;;;24.30;73.20;;;;;;5029728;28;20246;-83
2022/08/19 08:22:03;;;;;;;17.42;15.98;;;24.60;73.10;;;;;;5030896;28;20872;-84
2022/08/19 08:24:30;;;;;;;15.45;14.35;;;24.80;71.00;;;;;;5023796;28;20546;-84
2022/08/19 08:26:58;;;;;;;17.13;15.82;;;24.90;70.20;;;;;;5025478;28;20280;-84
2022/08/19 08:29:29;;;;;;;15.85;14.55;;;25.00;69.70;;;;;;5023802;28;20272;-84
2022/08/19 08:31:55;;;;;;;14.80;13.77;;;25.10;69.20;;;;;;5025619;28;20185;-82
2022/08/19 08:34:21;;;;;;;15.90;14.70;;;25.30;68.70;;;;;;5024217;28;20312;-84
2022/08/19 08:36:47;;;;;;;15.02;13.82;;;25.30;68.40;;;;;;5025859;28;20659;-83
2022/08/19 08:39:16;;;;;;;15.10;13.75;;;25.50;67.60;;;;;;5024995;28;20209;-84
2022/08/19 08:41:50;;;;;;;14.82;13.82;;;25.30;67.80;;;;;;5026520;28;20192;-84
2022/08/19 08:44:36;;;;;;;14.30;13.20;;;25.50;66.50;;;;;;5025198;28;20208;-84
2022/08/19 08:47:06;;;;;;;14.75;13.45;;;25.70;66.10;;;;;;5013682;28;20723;-84
2022/08/19 08:50:06;;;;;;;14.32;13.32;;;25.80;66.20;;;;;;5023116;28;20312;-84
2022/08/19 08:52:42;;;;;;;13.85;12.68;;;25.80;65.30;;;;;;5009448;28;20461;-84
2022/08/19 08:55:14;;;;;;;13.13;12.13;;;25.90;65.20;;;;;;5024229;28;20189;-84
2022/08/19 08:57:43;;;;;;;14.18;13.00;;;26.00;64.60;;;;;;5024667;28;20181;-84
2022/08/19 09:00:16;;;;;;;11.70;10.98;;;26.10;64.10;;;;;;5025357;28;20332;-84
2022/08/19 09:02:43;;;;;;;12.77;11.75;;;26.00;65.10;;;;;;5024974;28;20600;-84
2022/08/19 09:05:12;;;;;;;13.00;11.93;;;26.20;64.00;;;;;;5024267;28;20409;-85
2022/08/19 09:08:06;;;;;;;12.13;11.07;;;26.30;62.60;;;;;;5026676;28;20544;-83
2022/08/19 09:10:37;;;;;;;13.00;12.00;;;26.50;61.50;;;;;;5023613;28;20220;-84
2022/08/19 09:13:49;;;;;;;13.02;11.95;;;26.60;60.20;;;;;;5025960;28;20236;-83
2022/08/19 09:16:20;;;;;;;12.32;10.88;;;26.80;59.50;;;;;;5023817;28;20648;-83
2022/08/19 09:18:57;;;;;;;12.30;11.40;;;26.90;59.20;;;;;;5027910;28;20193;-83
2022/08/19 09:21:25;;;;;;;12.63;11.55;;;26.70;59.60;;;;;;5029151;28;20208;-83
2022/08/19 09:23:51;;;;;;;11.77;10.77;;;26.80;59.80;;;;;;5028327;28;20208;-81
2022/08/19 09:26:21;;;;;;;11.32;10.43;;;26.90;58.50;;;;;;5025067;28;20221;-82
2022/08/19 09:28:48;;;;;;;12.38;11.38;;;26.90;58.30;;;;;;5026561;28;20188;-82
2022/08/19 09:31:17;;;;;;;12.07;11.18;;;26.90;57.70;;;;;;5024798;28;20283;-81
2022/08/19 09:33:43;;;;;;;11.25;10.10;;;26.80;58.60;;;;;;5026701;28;20200;-81
2022/08/19 09:36:12;;;;;;;11.55;10.68;;;26.80;57.80;;;;;;5027639;28;20253;-80
2022/08/19 09:38:41;;;;;;;13.10;12.10;;;27.00;57.20;;;;;;5028465;28;20186;-82
2022/08/19 09:41:13;;;;;;;11.68;10.68;;;27.00;57.10;;;;;;5026402;28;20220;-81
2022/08/19 09:43:40;;;;;;;11.43;10.63;;;27.20;56.80;;;;;;5026126;28;20635;-82
2022/08/19 09:46:08;;;;;;;10.80;10.00;;;27.60;55.60;;;;;;5025486;28;20192;-82
2022/08/19 09:48:36;;;;;;;10.68;9.77;;;28.10;55.10;;;;;;5024917;28;20552;-82
2022/08/19 09:51:08;;;;;;;12.10;11.07;;;28.30;53.00;;;;;;5027620;28;20760;-82
2022/08/19 09:53:36;;;;;;;11.15;10.23;;;28.50;52.10;;;;;;5026288;28;20194;-83
2022/08/19 09:56:03;;;;;;;10.77;9.90;;;28.60;51.90;;;;;;5025492;28;20217;-83
2022/08/19 09:58:29;;;;;;;10.27;9.48;;;28.50;52.50;;;;;;5026291;28;20181;-84
2022/08/19 10:00:59;;;;;;;10.82;9.95;;;28.60;51.10;;;;;;5026340;28;20302;-83
2022/08/19 10:03:27;;;;;;;10.38;9.50;;;28.70;50.40;;;;;;5027883;28;20181;-84
2022/08/19 10:05:53;;;;;;;10.45;9.57;;;28.80;49.70;;;;;;5026183;28;20213;-83
2022/08/19 10:08:31;;;;;;;10.05;9.25;;;29.10;48.40;;;;;;5026516;28;20188;-84
2022/08/19 10:10:57;;;;;;;10.00;9.30;;;29.20;48.80;;;;;;5024691;28;20232;-84
2022/08/19 10:13:25;;;;;;;10.68;9.98;;;29.40;48.80;;;;;;5025924;28;20181;-85
2022/08/19 10:15:56;;;;;;;10.32;9.43;;;29.40;46.80;;;;;;5026906;28;20781;-83
2022/08/19 10:18:23;;;;;;;15.20;10.82;;;29.30;47.50;;;;;;5028932;28;20208;-85
2022/08/19 10:20:50;;;;;;;10.40;9.70;;;29.40;47.60;;;;;;5029211;28;20210;-82
2022/08/19 10:23:17;;;;;;;11.23;10.23;;;29.50;46.60;;;;;;5026129;28;20548;-82
2022/08/19 10:25:43;;;;;;;10.68;9.90;;;29.50;47.10;;;;;;5025203;28;20212;-83
2022/08/19 10:28:11;;;;;;;10.13;9.32;;;29.10;48.20;;;;;;5025029;28;20209;-85
2022/08/19 10:30:38;;;;;;;11.07;10.18;;;29.10;47.70;;;;;;5025680;28;20240;-84
2022/08/19 10:33:04;;;;;;;10.90;9.93;;;29.30;47.80;;;;;;5024000;28;20212;-83
2022/08/19 10:35:30;;;;;;;11.38;10.43;;;29.50;47.00;;;;;;5022987;28;20685;-84
2022/08/19 10:37:58;;;;;;;10.80;9.90;;;29.60;45.50;;;;;;5023435;28;20198;-84
2022/08/19 10:40:25;;;;;;;11.35;10.38;;;29.90;45.70;;;;;;5023156;28;20266;-83
2022/08/19 10:42:51;;;;;;;10.68;9.93;;;30.20;44.60;;;;;;5021863;28;20200;-85
2022/08/19 10:45:17;;;;;;;11.18;10.38;;;30.60;43.40;;;;;;5020775;28;20584;-85
2022/08/19 10:47:42;;;;;;;11.52;10.65;;;30.90;41.80;;;;;;5023529;28;20552;-84
2022/08/19 10:52:53;;;;;;;11.70;10.88;;;30.90;41.10;;;;;;5024205;28;20568;-85
2022/08/19 10:58:22;;;;;;;11.85;11.05;;;30.80;42.30;;;;;;5024121;28;20232;-85
2022/08/19 11:00:57;;;;;;;11.25;10.43;;;30.60;42.50;;;;;;5023684;28;20207;-85
2022/08/19 11:03:24;;;;;;;10.77;9.73;;;30.40;44.10;;;;;;5023109;28;20664;-85
2022/08/19 11:05:58;;;;;;;11.13;10.25;;;30.70;42.70;;;;;;5023825;28;20216;-85
2022/08/19 11:08:26;;;;;;;10.32;9.63;;;31.00;42.60;;;;;;5024159;28;20192;-85
2022/08/19 11:10:57;;;;;;;11.32;10.63;;;31.10;41.70;;;;;;5020586;28;20213;-85
2022/08/19 11:13:23;;;;;;;10.93;10.23;;;30.80;42.10;;;;;;5022021;28;20235;-86
2022/08/19 11:16:22;;;;;;;10.43;9.73;;;30.60;42.70;;;;;;5021593;28;20176;-86
2022/08/19 11:18:51;;;;;;;10.18;9.50;;;30.20;44.20;;;;;;5019239;28;20587;-86
2022/08/19 11:21:19;;;;;;;10.95;10.25;;;29.90;43.80;;;;;;5023408;28;20193;-86
2022/08/19 11:23:47;;;;;;;10.05;9.35;;;29.70;44.60;;;;;;5022524;28;20259;-85
2022/08/19 11:26:14;;;;;;;10.15;9.45;;;29.30;45.80;;;;;;5022662;28;20220;-86
2022/08/19 11:28:40;;;;;;;10.57;9.77;;;29.20;46.60;;;;;;5022229;28;20197;-85
2022/08/19 11:31:14;;;;;;;11.10;10.40;;;29.50;46.10;;;;;;5023584;28;20270;-86
2022/08/19 11:33:40;;;;;;;10.65;9.85;;;30.00;44.00;;;;;;5024061;28;20292;-86
2022/08/19 11:36:07;;;;;;;10.57;9.88;;;30.50;42.50;;;;;;5022576;28;20178;-86
2022/08/19 11:38:34;;;;;;;11.10;10.15;;;30.40;42.30;;;;;;5022516;28;20189;-86
2022/08/19 11:41:03;;;;;;;10.57;9.80;;;30.20;43.00;;;;;;5022654;28;20216;-87
2022/08/19 11:43:30;;;;;;;10.82;9.73;;;29.90;43.30;;;;;;5021394;28;20240;-86
2022/08/19 11:45:56;;;;;;;11.23;10.43;;;29.60;44.90;;;;;;5022703;28;20205;-85
2022/08/19 11:48:23;;;;;;;10.82;10.13;;;29.50;43.40;;;;;;5020545;28;20270;-86
2022/08/19 11:50:55;;;;;;;11.07;10.38;;;29.50;43.60;;;;;;5020101;28;20225;-86
2022/08/19 11:53:20;;;;;;;10.77;9.73;;;29.50;43.70;;;;;;5026142;28;20204;-86
2022/08/19 11:55:47;;;;;;;11.00;10.30;;;29.50;44.50;;;;;;5023043;28;20220;-86
2022/08/19 11:58:15;;;;;;;11.48;10.63;;;29.70;44.50;;;;;;5019942;28;20276;-86
2022/08/19 12:00:42;;;;;;;12.00;11.20;;;29.60;44.70;;;;;;5021590;28;20245;-86
2022/08/19 12:03:08;;;;;;;12.13;11.30;;;29.50;45.10;;;;;;5021539;28;20192;-83
2022/08/19 12:05:36;;;;;;;12.18;11.18;;;29.40;45.30;;;;;;5022623;28;20228;-86
2022/08/19 12:08:02;;;;;;;11.20;10.40;;;29.20;47.00;;;;;;5022091;28;20185;-86
2022/08/19 12:10:28;;;;;;;11.57;10.77;;;29.20;47.10;;;;;;5022260;28;20217;-86
2022/08/19 12:12:54;;;;;;;11.35;10.55;;;29.00;47.30;;;;;;5022571;28;20253;-87
2022/08/19 12:15:19;;;;;;;12.27;11.05;;;29.10;47.90;;;;;;5022267;28;20747;-85
2022/08/19 12:17:45;;;;;;;12.00;11.13;;;28.90;46.30;;;;;;5020035;28;20272;-86
2022/08/19 12:20:13;;;;;;;11.55;10.75;;;28.80;46.80;;;;;;5022222;28;20271;-86
2022/08/19 12:22:41;;;;;;;11.57;10.88;;;28.60;48.30;;;;;;5020481;28;20269;-84
2022/08/19 12:25:08;;;;;;;11.93;11.23;;;28.40;48.30;;;;;;5020149;28;20212;-86
2022/08/19 12:27:35;;;;;;;11.35;10.60;;;28.60;47.40;;;;;;5022311;28;20197;-85
2022/08/19 12:30:01;;;;;;;10.90;10.18;;;28.90;46.70;;;;;;5021873;28;20254;-86
2022/08/19 12:32:27;;;;;;;10.93;10.05;;;29.60;44.40;;;;;;5020817;28;20268;-87
2022/08/19 12:34:54;;;;;;;11.57;10.77;;;30.10;43.10;;;;;;5022335;28;20381;-87
2022/08/19 12:37:20;;;;;;;11.02;10.32;;;30.80;39.80;;;;;;5021943;28;20189;-85
2022/08/19 12:39:46;;;;;;;10.23;9.63;;;31.20;39.10;;;;;;5021240;28;20209;-86
2022/08/19 12:42:14;;;;;;;10.30;9.70;;;31.60;38.70;;;;;;5021432;28;20188;-86
2022/08/19 12:44:42;;;;;;;10.45;9.85;;;32.10;37.60;;;;;;5021528;28;20840;-84
2022/08/19 12:47:09;;;;;;;10.52;9.82;;;31.80;37.80;;;;;;5021312;28;20189;-86
2022/08/19 12:49:36;;;;;;;10.25;9.55;;;31.70;37.60;;;;;;5021841;28;20205;-85
2022/08/19 12:52:04;;;;;;;10.65;10.00;;;31.80;37.10;;;;;;5022911;28;20185;-85
2022/08/19 12:54:30;;;;;;;10.57;9.85;;;31.60;38.80;;;;;;5022916;28;20326;-84
2022/08/19 12:56:57;;;;;;;9.63;9.02;;;31.30;38.10;;;;;;5022307;28;20355;-85